sensor_id;sensor_type;location;lat;lon;timestamp;temperature;humidity
40600;DHT22;26309;50.924;4.754;2022-12-18T00:01:27;-5.00;99.90
40600;DHT22;26309;50.924;4.754;2022-12-18T00:03:57;-5.10;99.90
40600;DHT22;26309;50.924;4.754;2022-12-18T00:06:25;-4.90;99.90
40600;DHT22;26309;50.924;4.754;2022-12-18T00:08:51;-5.00;99.90
40600;DHT22;26309;50.924;4.754;2022-12-18T00:11:19;-5.00;99.90
40600;DHT22;26309;50.924;4.754;2022-12-18T00:13:46;-5.10;99.90
40600;DHT22;26309;50.924;4.754;2022-12-18T00:16:17;-5.10;99.90
40600;DHT22;26309;50.924;4.754;2022-12-18T00:18:46;-5.10;99.90
40600;DHT22;26309;50.924;4.754;2022-12-18T00:21:14;-5.10;99.90
40600;DHT22;26309;50.924;4.754;2022-12-18T00:23:42;-5.20;99.90
40600;DHT22;26309;50.924;4.754;2022-12-18T00:26:25;-5.20;99.90
40600;DHT22;26309;50.924;4.754;2022-12-18T00:28:51;-5.30;99.90
40600;DHT22;26309;50.924;4.754;2022-12-18T00:31:20;-5.40;99.90
40600;DHT22;26309;50.924;4.754;2022-12-18T00:33:47;-5.50;99.90
40600;DHT22;26309;50.924;4.754;2022-12-18T00:36:18;-5.60;99.90
40600;DHT22;26309;50.924;4.754;2022-12-18T00:38:45;-5.50;99.90
40600;DHT22;26309;50.924;4.754;2022-12-18T00:41:12;-5.50;99.90
40600;DHT22;26309;50.924;4.754;2022-12-18T00:43:39;-5.60;99.90
40600;DHT22;26309;50.924;4.754;2022-12-18T00:46:05;-5.60;99.90
40600;DHT22;26309;50.924;4.754;2022-12-18T00:48:31;-5.60;99.90
40600;DHT22;26309;50.924;4.754;2022-12-18T00:50:58;-5.60;99.90
40600;DHT22;26309;50.924;4.754;2022-12-18T00:53:23;-5.50;99.90
40600;DHT22;26309;50.924;4.754;2022-12-18T00:55:49;-5.50;99.90
40600;DHT22;26309;50.924;4.754;2022-12-18T00:58:16;-5.50;99.90
40600;DHT22;26309;50.924;4.754;2022-12-18T01:00:42;-5.70;99.90
40600;DHT22;26309;50.924;4.754;2022-12-18T01:03:13;-5.80;99.90
40600;DHT22;26309;50.924;4.754;2022-12-18T01:05:40;-5.80;99.90
40600;DHT22;26309;50.924;4.754;2022-12-18T01:08:06;-5.90;99.90
40600;DHT22;26309;50.924;4.754;2022-12-18T01:10:32;-5.90;99.90
40600;DHT22;26309;50.924;4.754;2022-12-18T01:12:58;-5.90;99.90
40600;DHT22;26309;50.924;4.754;2022-12-18T01:15:24;-6.00;99.90
40600;DHT22;26309;50.924;4.754;2022-12-18T01:17:52;-5.90;99.90
40600;DHT22;26309;50.924;4.754;2022-12-18T01:20:18;-5.90;99.90
40600;DHT22;26309;50.924;4.754;2022-12-18T01:22:44;-6.00;99.90
40600;DHT22;26309;50.924;4.754;2022-12-18T01:25:11;-6.00;99.90
40600;DHT22;26309;50.924;4.754;2022-12-18T01:27:37;-6.00;99.90
40600;DHT22;26309;50.924;4.754;2022-12-18T01:30:03;-6.00;99.90
40600;DHT22;26309;50.924;4.754;2022-12-18T01:32:30;-6.00;99.90
40600;DHT22;26309;50.924;4.754;2022-12-18T01:34:56;-6.00;99.90
40600;DHT22;26309;50.924;4.754;2022-12-18T01:37:22;-6.10;99.90
40600;DHT22;26309;50.924;4.754;2022-12-18T01:39:48;-6.00;99.90
40600;DHT22;26309;50.924;4.754;2022-12-18T01:42:16;-6.00;99.90
40600;DHT22;26309;50.924;4.754;2022-12-18T01:47:46;-6.10;99.90
40600;DHT22;26309;50.924;4.754;2022-12-18T01:50:41;-6.10;99.90
40600;DHT22;26309;50.924;4.754;2022-12-18T01:53:15;-6.10;99.90
40600;DHT22;26309;50.924;4.754;2022-12-18T01:55:52;-6.20;99.90
40600;DHT22;26309;50.924;4.754;2022-12-18T01:58:20;-6.20;99.90
40600;DHT22;26309;50.924;4.754;2022-12-18T02:00:49;-6.20;99.90
40600;DHT22;26309;50.924;4.754;2022-12-18T02:03:15;-6.10;99.90
40600;DHT22;26309;50.924;4.754;2022-12-18T02:14:17;-6.20;99.90
40600;DHT22;26309;50.924;4.754;2022-12-18T02:16:52;-6.30;99.90
40600;DHT22;26309;50.924;4.754;2022-12-18T02:20:17;-6.30;99.90
40600;DHT22;26309;50.924;4.754;2022-12-18T02:27:49;-6.30;99.90
40600;DHT22;26309;50.924;4.754;2022-12-18T02:30:17;-6.40;99.90
40600;DHT22;26309;50.924;4.754;2022-12-18T02:32:50;-6.20;99.90
40600;DHT22;26309;50.924;4.754;2022-12-18T02:35:22;-6.10;99.90
40600;DHT22;26309;50.924;4.754;2022-12-18T02:37:49;-6.20;99.90
40600;DHT22;26309;50.924;4.754;2022-12-18T02:40:17;-6.30;99.90
40600;DHT22;26309;50.924;4.754;2022-12-18T02:42:43;-6.30;99.90
40600;DHT22;26309;50.924;4.754;2022-12-18T02:45:09;-6.40;99.90
40600;DHT22;26309;50.924;4.754;2022-12-18T02:47:42;-6.40;99.90
40600;DHT22;26309;50.924;4.754;2022-12-18T02:50:34;-6.40;99.90
40600;DHT22;26309;50.924;4.754;2022-12-18T02:53:43;-6.40;99.90
40600;DHT22;26309;50.924;4.754;2022-12-18T03:01:28;-6.40;99.90
40600;DHT22;26309;50.924;4.754;2022-12-18T03:04:02;-6.50;99.90
40600;DHT22;26309;50.924;4.754;2022-12-18T03:06:37;-6.50;99.90
40600;DHT22;26309;50.924;4.754;2022-12-18T03:09:13;-6.60;99.90
40600;DHT22;26309;50.924;4.754;2022-12-18T03:11:42;-6.60;99.90
40600;DHT22;26309;50.924;4.754;2022-12-18T03:14:32;-6.60;99.90
40600;DHT22;26309;50.924;4.754;2022-12-18T03:17:01;-6.60;99.90
40600;DHT22;26309;50.924;4.754;2022-12-18T03:19:29;-6.70;99.90
40600;DHT22;26309;50.924;4.754;2022-12-18T03:22:02;-6.70;99.90
40600;DHT22;26309;50.924;4.754;2022-12-18T03:24:33;-6.50;99.90
40600;DHT22;26309;50.924;4.754;2022-12-18T03:27:09;-6.30;99.90
40600;DHT22;26309;50.924;4.754;2022-12-18T03:29:47;-6.40;99.90
40600;DHT22;26309;50.924;4.754;2022-12-18T03:32:44;-6.60;99.90
40600;DHT22;26309;50.924;4.754;2022-12-18T03:35:16;-6.70;99.90
40600;DHT22;26309;50.924;4.754;2022-12-18T03:37:44;-6.60;99.90
40600;DHT22;26309;50.924;4.754;2022-12-18T03:40:10;-6.50;99.90
40600;DHT22;26309;50.924;4.754;2022-12-18T03:42:56;-6.70;99.90
40600;DHT22;26309;50.924;4.754;2022-12-18T03:45:51;-6.60;99.90
40600;DHT22;26309;50.924;4.754;2022-12-18T03:48:29;-6.80;99.90
40600;DHT22;26309;50.924;4.754;2022-12-18T03:51:06;-6.90;99.90
40600;DHT22;26309;50.924;4.754;2022-12-18T03:56:00;-7.10;99.90
40600;DHT22;26309;50.924;4.754;2022-12-18T03:58:29;-7.00;99.90
40600;DHT22;26309;50.924;4.754;2022-12-18T04:01:01;-6.90;99.90
40600;DHT22;26309;50.924;4.754;2022-12-18T04:03:30;-7.00;99.90
40600;DHT22;26309;50.924;4.754;2022-12-18T04:05:59;-7.10;99.90
40600;DHT22;26309;50.924;4.754;2022-12-18T04:08:28;-7.10;99.90
40600;DHT22;26309;50.924;4.754;2022-12-18T04:10:55;-7.00;99.90
40600;DHT22;26309;50.924;4.754;2022-12-18T04:13:28;-7.00;99.90
40600;DHT22;26309;50.924;4.754;2022-12-18T04:15:54;-7.10;99.90
40600;DHT22;26309;50.924;4.754;2022-12-18T04:18:20;-7.00;99.90
40600;DHT22;26309;50.924;4.754;2022-12-18T04:20:46;-7.00;99.90
40600;DHT22;26309;50.924;4.754;2022-12-18T04:23:12;-6.80;99.90
40600;DHT22;26309;50.924;4.754;2022-12-18T04:25:37;-6.80;99.90
40600;DHT22;26309;50.924;4.754;2022-12-18T04:28:03;-6.80;99.90
40600;DHT22;26309;50.924;4.754;2022-12-18T04:30:29;-6.70;99.90
40600;DHT22;26309;50.924;4.754;2022-12-18T04:32:55;-6.90;99.90
40600;DHT22;26309;50.924;4.754;2022-12-18T04:35:21;-7.00;99.90
40600;DHT22;26309;50.924;4.754;2022-12-18T04:37:46;-7.00;99.90
40600;DHT22;26309;50.924;4.754;2022-12-18T04:40:12;-7.10;99.90
40600;DHT22;26309;50.924;4.754;2022-12-18T04:42:39;-7.00;99.90
40600;DHT22;26309;50.924;4.754;2022-12-18T04:45:06;-7.00;99.90
40600;DHT22;26309;50.924;4.754;2022-12-18T04:47:32;-7.10;99.90
40600;DHT22;26309;50.924;4.754;2022-12-18T04:49:58;-7.10;99.90
40600;DHT22;26309;50.924;4.754;2022-12-18T04:52:24;-7.30;99.90
40600;DHT22;26309;50.924;4.754;2022-12-18T04:54:50;-7.30;99.90
40600;DHT22;26309;50.924;4.754;2022-12-18T04:57:15;-7.10;99.90
40600;DHT22;26309;50.924;4.754;2022-12-18T04:59:44;-6.90;99.90
40600;DHT22;26309;50.924;4.754;2022-12-18T05:02:09;-7.20;99.90
40600;DHT22;26309;50.924;4.754;2022-12-18T05:04:35;-7.20;99.90
40600;DHT22;26309;50.924;4.754;2022-12-18T05:07:01;-7.20;99.90
40600;DHT22;26309;50.924;4.754;2022-12-18T05:09:27;-7.20;99.90
40600;DHT22;26309;50.924;4.754;2022-12-18T05:11:52;-7.10;99.90
40600;DHT22;26309;50.924;4.754;2022-12-18T05:14:19;-7.10;99.90
40600;DHT22;26309;50.924;4.754;2022-12-18T05:16:47;-7.00;99.90
40600;DHT22;26309;50.924;4.754;2022-12-18T05:19:13;-7.00;99.90
40600;DHT22;26309;50.924;4.754;2022-12-18T05:21:39;-7.00;99.90
40600;DHT22;26309;50.924;4.754;2022-12-18T05:24:05;-7.00;99.90
40600;DHT22;26309;50.924;4.754;2022-12-18T05:26:31;-6.90;99.90
40600;DHT22;26309;50.924;4.754;2022-12-18T05:28:56;-7.00;99.90
40600;DHT22;26309;50.924;4.754;2022-12-18T05:31:24;-7.00;99.90
40600;DHT22;26309;50.924;4.754;2022-12-18T05:33:50;-6.90;99.90
40600;DHT22;26309;50.924;4.754;2022-12-18T05:36:15;-6.90;99.90
40600;DHT22;26309;50.924;4.754;2022-12-18T05:38:41;-7.00;99.90
40600;DHT22;26309;50.924;4.754;2022-12-18T05:41:08;-7.10;99.90
40600;DHT22;26309;50.924;4.754;2022-12-18T05:43:35;-7.00;99.90
40600;DHT22;26309;50.924;4.754;2022-12-18T05:46:12;-7.10;99.90
40600;DHT22;26309;50.924;4.754;2022-12-18T05:48:38;-7.00;99.90
40600;DHT22;26309;50.924;4.754;2022-12-18T05:51:07;-6.90;99.90
40600;DHT22;26309;50.924;4.754;2022-12-18T05:53:33;-6.90;99.90
40600;DHT22;26309;50.924;4.754;2022-12-18T05:56:04;-7.00;99.90
40600;DHT22;26309;50.924;4.754;2022-12-18T05:58:30;-7.00;99.90
40600;DHT22;26309;50.924;4.754;2022-12-18T06:00:57;-6.90;99.90
40600;DHT22;26309;50.924;4.754;2022-12-18T06:03:24;-6.80;99.90
40600;DHT22;26309;50.924;4.754;2022-12-18T06:05:49;-6.90;99.90
40600;DHT22;26309;50.924;4.754;2022-12-18T06:08:15;-7.00;99.90
40600;DHT22;26309;50.924;4.754;2022-12-18T06:10:41;-6.90;99.90
40600;DHT22;26309;50.924;4.754;2022-12-18T06:13:07;-6.90;99.90
40600;DHT22;26309;50.924;4.754;2022-12-18T06:15:36;-7.10;99.90
40600;DHT22;26309;50.924;4.754;2022-12-18T06:18:03;-7.10;99.90
40600;DHT22;26309;50.924;4.754;2022-12-18T06:20:29;-7.10;99.90
40600;DHT22;26309;50.924;4.754;2022-12-18T06:22:56;-7.10;99.90
40600;DHT22;26309;50.924;4.754;2022-12-18T06:25:22;-7.20;99.90
40600;DHT22;26309;50.924;4.754;2022-12-18T06:27:48;-7.30;99.90
40600;DHT22;26309;50.924;4.754;2022-12-18T06:30:14;-7.20;99.90
40600;DHT22;26309;50.924;4.754;2022-12-18T06:32:41;-7.00;99.90
40600;DHT22;26309;50.924;4.754;2022-12-18T06:35:07;-6.80;99.90
40600;DHT22;26309;50.924;4.754;2022-12-18T06:37:33;-6.80;99.90
40600;DHT22;26309;50.924;4.754;2022-12-18T06:39:59;-6.90;99.90
40600;DHT22;26309;50.924;4.754;2022-12-18T06:42:26;-6.90;99.90
40600;DHT22;26309;50.924;4.754;2022-12-18T06:44:52;-6.90;99.90
40600;DHT22;26309;50.924;4.754;2022-12-18T06:47:18;-6.90;99.90
40600;DHT22;26309;50.924;4.754;2022-12-18T06:49:44;-6.90;99.90
40600;DHT22;26309;50.924;4.754;2022-12-18T06:52:09;-6.90;99.90
40600;DHT22;26309;50.924;4.754;2022-12-18T06:54:35;-6.80;99.90
40600;DHT22;26309;50.924;4.754;2022-12-18T06:57:01;-6.90;99.90
40600;DHT22;26309;50.924;4.754;2022-12-18T06:59:27;-6.90;99.90
40600;DHT22;26309;50.924;4.754;2022-12-18T07:01:53;-6.90;99.90
40600;DHT22;26309;50.924;4.754;2022-12-18T07:04:18;-6.90;99.90
40600;DHT22;26309;50.924;4.754;2022-12-18T07:06:45;-6.80;99.90
40600;DHT22;26309;50.924;4.754;2022-12-18T07:09:11;-6.70;99.90
40600;DHT22;26309;50.924;4.754;2022-12-18T07:11:37;-6.60;99.90
40600;DHT22;26309;50.924;4.754;2022-12-18T07:14:03;-6.60;99.90
40600;DHT22;26309;50.924;4.754;2022-12-18T07:16:28;-6.70;99.90
40600;DHT22;26309;50.924;4.754;2022-12-18T07:18:55;-6.70;99.90
40600;DHT22;26309;50.924;4.754;2022-12-18T07:21:22;-6.70;99.90
40600;DHT22;26309;50.924;4.754;2022-12-18T07:23:48;-6.60;99.90
40600;DHT22;26309;50.924;4.754;2022-12-18T07:26:17;-6.50;99.90
40600;DHT22;26309;50.924;4.754;2022-12-18T07:28:43;-6.40;99.90
40600;DHT22;26309;50.924;4.754;2022-12-18T07:31:20;-6.30;99.90
40600;DHT22;26309;50.924;4.754;2022-12-18T07:33:47;-6.30;99.90
40600;DHT22;26309;50.924;4.754;2022-12-18T07:36:13;-6.30;99.90
40600;DHT22;26309;50.924;4.754;2022-12-18T07:38:39;-6.20;99.90
40600;DHT22;26309;50.924;4.754;2022-12-18T07:41:08;-6.20;99.90
40600;DHT22;26309;50.924;4.754;2022-12-18T07:43:34;-6.10;99.90
40600;DHT22;26309;50.924;4.754;2022-12-18T07:46:00;-5.90;99.90
40600;DHT22;26309;50.924;4.754;2022-12-18T07:48:27;-5.80;99.90
40600;DHT22;26309;50.924;4.754;2022-12-18T07:51:02;-5.80;99.90
40600;DHT22;26309;50.924;4.754;2022-12-18T07:53:29;-5.80;99.90
40600;DHT22;26309;50.924;4.754;2022-12-18T07:56:00;-5.90;99.90
40600;DHT22;26309;50.924;4.754;2022-12-18T07:58:26;-6.00;99.90
40600;DHT22;26309;50.924;4.754;2022-12-18T08:00:52;-5.80;99.90
40600;DHT22;26309;50.924;4.754;2022-12-18T08:03:18;-5.90;99.90
40600;DHT22;26309;50.924;4.754;2022-12-18T08:05:44;-5.30;99.90
40600;DHT22;26309;50.924;4.754;2022-12-18T08:08:10;-5.30;99.90
40600;DHT22;26309;50.924;4.754;2022-12-18T08:10:37;-5.30;99.90
40600;DHT22;26309;50.924;4.754;2022-12-18T08:13:03;-5.40;99.90
40600;DHT22;26309;50.924;4.754;2022-12-18T08:15:30;-5.40;99.90
40600;DHT22;26309;50.924;4.754;2022-12-18T08:17:58;-5.40;99.90
40600;DHT22;26309;50.924;4.754;2022-12-18T08:20:24;-5.50;99.90
40600;DHT22;26309;50.924;4.754;2022-12-18T08:22:50;-5.50;99.90
40600;DHT22;26309;50.924;4.754;2022-12-18T08:25:16;-5.60;99.90
40600;DHT22;26309;50.924;4.754;2022-12-18T08:27:41;-5.40;99.90
40600;DHT22;26309;50.924;4.754;2022-12-18T08:30:08;-5.40;99.90
40600;DHT22;26309;50.924;4.754;2022-12-18T08:32:34;-5.10;99.90
40600;DHT22;26309;50.924;4.754;2022-12-18T08:35:00;-4.50;99.90
40600;DHT22;26309;50.924;4.754;2022-12-18T08:37:25;-4.50;99.90
40600;DHT22;26309;50.924;4.754;2022-12-18T08:39:51;-4.50;99.90
40600;DHT22;26309;50.924;4.754;2022-12-18T08:42:17;-4.50;99.90
40600;DHT22;26309;50.924;4.754;2022-12-18T08:45:01;-4.50;99.90
40600;DHT22;26309;50.924;4.754;2022-12-18T08:47:27;-4.50;99.90
40600;DHT22;26309;50.924;4.754;2022-12-18T08:49:53;-4.50;99.90
40600;DHT22;26309;50.924;4.754;2022-12-18T08:52:18;-4.40;99.90
40600;DHT22;26309;50.924;4.754;2022-12-18T08:54:44;-4.30;99.90
40600;DHT22;26309;50.924;4.754;2022-12-18T08:57:10;-4.30;99.90
40600;DHT22;26309;50.924;4.754;2022-12-18T08:59:35;-4.10;99.90
40600;DHT22;26309;50.924;4.754;2022-12-18T09:02:01;-4.00;99.90
40600;DHT22;26309;50.924;4.754;2022-12-18T09:04:27;-3.90;99.90
40600;DHT22;26309;50.924;4.754;2022-12-18T09:06:53;-3.70;99.90
40600;DHT22;26309;50.924;4.754;2022-12-18T09:09:18;-3.60;99.90
40600;DHT22;26309;50.924;4.754;2022-12-18T09:11:44;-3.60;99.90
40600;DHT22;26309;50.924;4.754;2022-12-18T09:14:10;-3.40;99.90
40600;DHT22;26309;50.924;4.754;2022-12-18T09:16:36;-3.30;99.90
40600;DHT22;26309;50.924;4.754;2022-12-18T09:19:03;-3.30;99.90
40600;DHT22;26309;50.924;4.754;2022-12-18T09:21:34;-3.20;99.90
40600;DHT22;26309;50.924;4.754;2022-12-18T09:24:01;-3.10;99.90
40600;DHT22;26309;50.924;4.754;2022-12-18T09:26:27;-2.90;99.90
40600;DHT22;26309;50.924;4.754;2022-12-18T09:28:53;-2.70;99.90
40600;DHT22;26309;50.924;4.754;2022-12-18T09:31:21;-2.60;99.90
40600;DHT22;26309;50.924;4.754;2022-12-18T09:33:47;-2.40;99.90
40600;DHT22;26309;50.924;4.754;2022-12-18T09:36:15;-2.40;99.90
40600;DHT22;26309;50.924;4.754;2022-12-18T09:38:42;-2.20;99.90
40600;DHT22;26309;50.924;4.754;2022-12-18T09:43:57;-1.90;99.90
40600;DHT22;26309;50.924;4.754;2022-12-18T09:46:29;-2.00;99.90
40600;DHT22;26309;50.924;4.754;2022-12-18T09:48:59;-2.30;99.90
40600;DHT22;26309;50.924;4.754;2022-12-18T09:51:35;-2.20;99.90
40600;DHT22;26309;50.924;4.754;2022-12-18T09:54:30;-2.10;99.90
40600;DHT22;26309;50.924;4.754;2022-12-18T09:56:58;-2.10;99.90
40600;DHT22;26309;50.924;4.754;2022-12-18T09:59:27;-2.20;99.90
40600;DHT22;26309;50.924;4.754;2022-12-18T10:01:57;-2.10;99.90
40600;DHT22;26309;50.924;4.754;2022-12-18T10:04:23;-2.00;99.90
40600;DHT22;26309;50.924;4.754;2022-12-18T10:09:37;-1.80;99.90
40600;DHT22;26309;50.924;4.754;2022-12-18T10:12:18;-1.60;99.90
40600;DHT22;26309;50.924;4.754;2022-12-18T10:26:06;-1.10;99.90
40600;DHT22;26309;50.924;4.754;2022-12-18T10:28:38;-1.00;99.90
40600;DHT22;26309;50.924;4.754;2022-12-18T10:31:20;-0.80;99.90
40600;DHT22;26309;50.924;4.754;2022-12-18T10:33:46;-0.60;99.90
40600;DHT22;26309;50.924;4.754;2022-12-18T10:36:14;-0.60;99.90
40600;DHT22;26309;50.924;4.754;2022-12-18T10:38:43;-0.60;99.90
40600;DHT22;26309;50.924;4.754;2022-12-18T10:46:40;-0.40;99.90
40600;DHT22;26309;50.924;4.754;2022-12-18T10:49:19;-0.40;99.90
40600;DHT22;26309;50.924;4.754;2022-12-18T10:51:46;-0.40;99.90
40600;DHT22;26309;50.924;4.754;2022-12-18T10:54:21;-0.30;99.90
40600;DHT22;26309;50.924;4.754;2022-12-18T10:56:48;-0.20;99.90
40600;DHT22;26309;50.924;4.754;2022-12-18T10:59:16;-0.10;99.90
40600;DHT22;26309;50.924;4.754;2022-12-18T11:01:56;-0.20;99.90
40600;DHT22;26309;50.924;4.754;2022-12-18T11:04:26;-0.20;99.90
40600;DHT22;26309;50.924;4.754;2022-12-18T11:09:22;0.00;99.90
40600;DHT22;26309;50.924;4.754;2022-12-18T11:11:51;0.10;99.90
40600;DHT22;26309;50.924;4.754;2022-12-18T11:14:25;0.00;99.90
40600;DHT22;26309;50.924;4.754;2022-12-18T11:16:52;0.00;99.90
40600;DHT22;26309;50.924;4.754;2022-12-18T11:19:28;-0.10;99.90
40600;DHT22;26309;50.924;4.754;2022-12-18T11:21:56;-0.10;99.90
40600;DHT22;26309;50.924;4.754;2022-12-18T11:24:29;0.00;99.90
40600;DHT22;26309;50.924;4.754;2022-12-18T11:27:01;0.20;99.90
40600;DHT22;26309;50.924;4.754;2022-12-18T11:29:38;0.60;99.90
40600;DHT22;26309;50.924;4.754;2022-12-18T11:34:55;0.80;99.90
40600;DHT22;26309;50.924;4.754;2022-12-18T11:37:23;0.70;99.90
40600;DHT22;26309;50.924;4.754;2022-12-18T11:40:13;0.50;99.90
40600;DHT22;26309;50.924;4.754;2022-12-18T11:42:42;0.40;99.90
40600;DHT22;26309;50.924;4.754;2022-12-18T11:47:49;0.50;99.90
40600;DHT22;26309;50.924;4.754;2022-12-18T11:50:24;0.50;99.90
40600;DHT22;26309;50.924;4.754;2022-12-18T11:52:51;0.60;99.90
40600;DHT22;26309;50.924;4.754;2022-12-18T12:00:49;0.10;99.90
40600;DHT22;26309;50.924;4.754;2022-12-18T12:12:54;0.40;99.90
40600;DHT22;26309;50.924;4.754;2022-12-18T12:24:00;1.00;99.90
40600;DHT22;26309;50.924;4.754;2022-12-18T12:27:07;1.20;99.90
40600;DHT22;26309;50.924;4.754;2022-12-18T12:38:07;1.40;99.90
40600;DHT22;26309;50.924;4.754;2022-12-18T12:40:44;1.40;99.90
40600;DHT22;26309;50.924;4.754;2022-12-18T12:43:41;1.30;99.90
40600;DHT22;26309;50.924;4.754;2022-12-18T12:46:13;1.30;99.90
40600;DHT22;26309;50.924;4.754;2022-12-18T12:49:01;1.50;99.90
40600;DHT22;26309;50.924;4.754;2022-12-18T12:51:30;1.70;99.90
40600;DHT22;26309;50.924;4.754;2022-12-18T12:53:58;1.80;99.90
40600;DHT22;26309;50.924;4.754;2022-12-18T13:02:15;2.20;99.90
40600;DHT22;26309;50.924;4.754;2022-12-18T13:07:51;2.30;99.90
40600;DHT22;26309;50.924;4.754;2022-12-18T13:13:09;2.40;99.90
40600;DHT22;26309;50.924;4.754;2022-12-18T13:16:04;2.40;99.90
40600;DHT22;26309;50.924;4.754;2022-12-18T13:18:30;2.30;99.90
40600;DHT22;26309;50.924;4.754;2022-12-18T13:31:07;2.30;99.90
40600;DHT22;26309;50.924;4.754;2022-12-18T13:39:10;2.00;99.90
40600;DHT22;26309;50.924;4.754;2022-12-18T13:41:36;2.10;99.90
40600;DHT22;26309;50.924;4.754;2022-12-18T13:44:36;2.10;99.90
40600;DHT22;26309;50.924;4.754;2022-12-18T13:47:24;2.20;99.90
40600;DHT22;26309;50.924;4.754;2022-12-18T13:49:51;2.30;99.90
40600;DHT22;26309;50.924;4.754;2022-12-18T13:52:24;2.30;99.90
40600;DHT22;26309;50.924;4.754;2022-12-18T13:54:53;2.20;99.90
40600;DHT22;26309;50.924;4.754;2022-12-18T13:57:28;2.40;99.90
40600;DHT22;26309;50.924;4.754;2022-12-18T13:59:55;2.30;99.90
40600;DHT22;26309;50.924;4.754;2022-12-18T14:02:27;2.20;99.90
40600;DHT22;26309;50.924;4.754;2022-12-18T14:04:53;2.20;99.90
40600;DHT22;26309;50.924;4.754;2022-12-18T14:07:24;2.10;99.90
40600;DHT22;26309;50.924;4.754;2022-12-18T14:09:58;2.10;99.90
40600;DHT22;26309;50.924;4.754;2022-12-18T14:12:33;2.30;99.90
40600;DHT22;26309;50.924;4.754;2022-12-18T14:18:43;2.10;99.90
40600;DHT22;26309;50.924;4.754;2022-12-18T14:21:29;2.00;99.90
40600;DHT22;26309;50.924;4.754;2022-12-18T14:24:24;2.20;99.90
40600;DHT22;26309;50.924;4.754;2022-12-18T14:26:50;1.90;99.90
40600;DHT22;26309;50.924;4.754;2022-12-18T14:29:26;1.90;99.90
40600;DHT22;26309;50.924;4.754;2022-12-18T14:32:11;2.00;99.90
40600;DHT22;26309;50.924;4.754;2022-12-18T14:34:39;2.00;99.90
40600;DHT22;26309;50.924;4.754;2022-12-18T14:37:07;1.90;99.90
40600;DHT22;26309;50.924;4.754;2022-12-18T14:39:34;1.90;99.90
40600;DHT22;26309;50.924;4.754;2022-12-18T14:42:00;1.90;99.90
40600;DHT22;26309;50.924;4.754;2022-12-18T14:44:26;2.00;99.90
40600;DHT22;26309;50.924;4.754;2022-12-18T14:46:51;2.00;99.90
40600;DHT22;26309;50.924;4.754;2022-12-18T14:49:32;2.00;99.90
40600;DHT22;26309;50.924;4.754;2022-12-18T14:52:03;2.00;99.90
40600;DHT22;26309;50.924;4.754;2022-12-18T14:54:31;2.00;99.90
40600;DHT22;26309;50.924;4.754;2022-12-18T14:59:46;2.00;99.90
40600;DHT22;26309;50.924;4.754;2022-12-18T15:02:27;2.00;99.90
40600;DHT22;26309;50.924;4.754;2022-12-18T15:07:57;1.90;99.90
40600;DHT22;26309;50.924;4.754;2022-12-18T15:10:26;2.00;99.90
40600;DHT22;26309;50.924;4.754;2022-12-18T15:25:46;1.80;99.90
40600;DHT22;26309;50.924;4.754;2022-12-18T15:33:36;1.90;99.90
40600;DHT22;26309;50.924;4.754;2022-12-18T15:36:10;2.10;99.90
40600;DHT22;26309;50.924;4.754;2022-12-18T15:38:36;2.00;99.90
40600;DHT22;26309;50.924;4.754;2022-12-18T15:41:02;2.00;99.90
40600;DHT22;26309;50.924;4.754;2022-12-18T15:43:28;2.00;99.90
40600;DHT22;26309;50.924;4.754;2022-12-18T15:46:05;2.00;99.90
40600;DHT22;26309;50.924;4.754;2022-12-18T15:48:33;1.90;99.90
40600;DHT22;26309;50.924;4.754;2022-12-18T15:51:00;1.90;99.90
40600;DHT22;26309;50.924;4.754;2022-12-18T15:53:32;1.90;99.90
40600;DHT22;26309;50.924;4.754;2022-12-18T15:55:59;2.00;99.90
40600;DHT22;26309;50.924;4.754;2022-12-18T15:58:44;2.10;99.90
40600;DHT22;26309;50.924;4.754;2022-12-18T16:01:10;2.10;99.90
40600;DHT22;26309;50.924;4.754;2022-12-18T16:03:36;2.10;99.90
40600;DHT22;26309;50.924;4.754;2022-12-18T16:06:02;2.20;99.90
40600;DHT22;26309;50.924;4.754;2022-12-18T16:08:36;2.10;99.90
40600;DHT22;26309;50.924;4.754;2022-12-18T16:11:02;2.00;99.90
40600;DHT22;26309;50.924;4.754;2022-12-18T16:13:28;1.90;99.90
40600;DHT22;26309;50.924;4.754;2022-12-18T16:15:54;2.00;99.90
40600;DHT22;26309;50.924;4.754;2022-12-18T16:18:19;2.00;99.90
40600;DHT22;26309;50.924;4.754;2022-12-18T16:20:45;2.00;99.90
40600;DHT22;26309;50.924;4.754;2022-12-18T16:23:11;2.00;99.90
40600;DHT22;26309;50.924;4.754;2022-12-18T16:25:37;2.10;99.90
40600;DHT22;26309;50.924;4.754;2022-12-18T16:28:02;2.10;99.90
40600;DHT22;26309;50.924;4.754;2022-12-18T16:30:31;2.10;99.90
40600;DHT22;26309;50.924;4.754;2022-12-18T16:32:57;2.10;99.90
40600;DHT22;26309;50.924;4.754;2022-12-18T16:35:24;2.00;99.90
40600;DHT22;26309;50.924;4.754;2022-12-18T16:37:52;2.00;99.90
40600;DHT22;26309;50.924;4.754;2022-12-18T16:40:18;2.00;99.90
40600;DHT22;26309;50.924;4.754;2022-12-18T16:42:45;2.00;99.90
40600;DHT22;26309;50.924;4.754;2022-12-18T16:45:14;1.90;99.90
40600;DHT22;26309;50.924;4.754;2022-12-18T16:47:40;2.00;99.90
40600;DHT22;26309;50.924;4.754;2022-12-18T16:50:07;2.00;99.90
40600;DHT22;26309;50.924;4.754;2022-12-18T16:52:34;1.90;99.90
40600;DHT22;26309;50.924;4.754;2022-12-18T16:55:00;1.90;99.90
40600;DHT22;26309;50.924;4.754;2022-12-18T16:57:26;1.90;99.90
40600;DHT22;26309;50.924;4.754;2022-12-18T16:59:52;2.00;99.90
40600;DHT22;26309;50.924;4.754;2022-12-18T17:02:20;2.10;99.90
40600;DHT22;26309;50.924;4.754;2022-12-18T17:04:46;2.00;99.90
40600;DHT22;26309;50.924;4.754;2022-12-18T17:07:12;2.10;99.90
40600;DHT22;26309;50.924;4.754;2022-12-18T17:09:39;2.00;99.90
40600;DHT22;26309;50.924;4.754;2022-12-18T17:12:05;2.10;99.90
40600;DHT22;26309;50.924;4.754;2022-12-18T17:14:32;2.10;99.90
40600;DHT22;26309;50.924;4.754;2022-12-18T17:16:58;2.00;99.90
40600;DHT22;26309;50.924;4.754;2022-12-18T17:19:25;2.10;99.90
40600;DHT22;26309;50.924;4.754;2022-12-18T17:21:51;2.00;99.90
40600;DHT22;26309;50.924;4.754;2022-12-18T17:24:18;2.10;99.90
40600;DHT22;26309;50.924;4.754;2022-12-18T17:26:45;2.10;99.90
40600;DHT22;26309;50.924;4.754;2022-12-18T17:29:14;2.00;99.90
40600;DHT22;26309;50.924;4.754;2022-12-18T17:31:40;2.10;99.90
40600;DHT22;26309;50.924;4.754;2022-12-18T17:34:07;2.20;99.90
40600;DHT22;26309;50.924;4.754;2022-12-18T17:36:32;2.20;99.90
40600;DHT22;26309;50.924;4.754;2022-12-18T17:38:59;2.30;99.90
40600;DHT22;26309;50.924;4.754;2022-12-18T17:41:27;2.10;99.90
40600;DHT22;26309;50.924;4.754;2022-12-18T17:44:04;2.10;99.90
40600;DHT22;26309;50.924;4.754;2022-12-18T17:46:31;2.10;99.90
40600;DHT22;26309;50.924;4.754;2022-12-18T17:49:05;2.10;99.90
40600;DHT22;26309;50.924;4.754;2022-12-18T17:51:31;2.10;99.90
40600;DHT22;26309;50.924;4.754;2022-12-18T17:53:57;2.10;99.90
40600;DHT22;26309;50.924;4.754;2022-12-18T17:56:23;2.20;99.90
40600;DHT22;26309;50.924;4.754;2022-12-18T17:58:49;2.30;99.90
40600;DHT22;26309;50.924;4.754;2022-12-18T18:01:19;2.30;99.90
40600;DHT22;26309;50.924;4.754;2022-12-18T18:03:45;2.30;99.90
40600;DHT22;26309;50.924;4.754;2022-12-18T18:06:12;2.30;99.90
40600;DHT22;26309;50.924;4.754;2022-12-18T18:08:38;2.30;99.90
40600;DHT22;26309;50.924;4.754;2022-12-18T18:11:10;2.20;99.90